DIPPU VNPL-VNPL

Flight info

Callsign DIPPU
Flight time N/A
Altitude 14500
Route VFR
Aircraft BE58/L-S/S

Departure

Time 2026-05-07 11:40
Airport Phaplu Airport (VNPL)

Arrival

Time N/A
Airport Phaplu Airport (VNPL)
Time Latitude Longitude Altitude Speed Heading
2026-05-07 11:29 27.51740 86.58426 8073 ft 0 kts 202°
2026-05-07 11:33 27.51735 86.58423 8075 ft 2 kts 201°
2026-05-07 11:33 27.51712 86.58440 8069 ft 7 kts 111°
2026-05-07 11:33 27.51759 86.58492 8063 ft 15 kts 21°
2026-05-07 11:34 27.51880 86.58550 8051 ft 22 kts 23°
2026-05-07 11:34 27.52030 86.58614 8032 ft 21 kts
2026-05-07 11:34 27.52078 86.58636 8039 ft 0 kts 160°
2026-05-07 11:37 27.52075 86.58637 8039 ft 5 kts 169°
2026-05-07 11:37 27.51879 86.58552 8051 ft 57 kts 202°
2026-05-07 11:37 27.51403 86.58322 8075 ft 89 kts 204°
2026-05-07 11:38 27.50676 86.57972 7789 ft 135 kts 202°
2026-05-07 11:38 27.49824 86.57508 8002 ft 135 kts 220°
2026-05-07 11:38 27.49169 86.56788 8207 ft 133 kts 199°
2026-05-07 11:38 27.48334 86.57017 8417 ft 133 kts 124°
2026-05-07 11:39 27.48524 86.57936 8437 ft 147 kts 21°
2026-05-07 11:39 27.49595 86.58072 8302 ft 167 kts
2026-05-07 11:39 27.50803 86.58191 8262 ft 178 kts
2026-05-07 11:39 27.52038 86.58621 8065 ft 193 kts 22°
2026-05-07 11:40 27.53255 86.59241 8142 ft 188 kts 27°
2026-05-07 11:40 27.54016 86.59722 9592 ft 59 kts